Time;durP1;ratioP1;P1;durP2;ratioP2;P2;SDS_P1;SDS_P2;PMS_P1;PMS_P2;Temp;Humidity;BMP_temperature;BMP_pressure;BME280_temperature;BME280_humidity;BME280_pressure;Samples;Min_cycle;Max_cycle;Signal;HPM_P1;HPM_P2
2023/03/14 00:01:54;;;;;;;6.33;6.00;;;11.00;99.90;;;;;;10289817;28;20227;-78
2023/03/14 00:06:56;;;;;;;10.70;10.20;;;11.10;99.90;;;;;;10288770;28;20223;-78
2023/03/14 00:11:59;;;;;;;10.90;10.50;;;11.00;99.90;;;;;;10272133;28;20715;-80
2023/03/14 00:17:01;;;;;;;11.10;10.60;;;11.00;99.90;;;;;;10290202;28;20307;-79
2023/03/14 00:22:03;;;;;;;11.13;10.73;;;11.10;99.90;;;;;;10294952;28;20556;-78
2023/03/14 00:27:07;;;;;;;11.17;10.77;;;11.00;99.90;;;;;;10296322;28;20319;-79
2023/03/14 00:32:09;;;;;;;10.27;9.87;;;11.00;99.90;;;;;;10296416;28;20191;-79
2023/03/14 00:37:11;;;;;;;10.57;10.17;;;11.10;99.90;;;;;;10295217;28;20222;-79
2023/03/14 00:42:15;;;;;;;10.30;9.90;;;11.00;99.90;;;;;;10296491;28;20226;-78
2023/03/14 00:47:17;;;;;;;10.60;10.20;;;11.00;99.90;;;;;;10293887;28;20304;-79
2023/03/14 00:52:19;;;;;;;9.70;9.30;;;10.90;99.90;;;;;;10294147;28;20227;-79
2023/03/14 00:57:23;;;;;;;10.40;9.80;;;11.00;99.90;;;;;;10295000;28;20303;-78
2023/03/14 01:02:25;;;;;;;9.00;8.70;;;11.00;99.90;;;;;;10278204;28;20223;-78
2023/03/14 01:07:27;;;;;;;8.93;8.63;;;11.00;99.90;;;;;;10295629;28;20224;-77
2023/03/14 01:12:30;;;;;;;11.10;10.33;;;11.00;99.90;;;;;;10298578;28;20230;-80
2023/03/14 01:17:33;;;;;;;8.33;8.03;;;11.00;99.90;;;;;;10284629;28;20724;-79
2023/03/14 01:22:34;;;;;;;8.83;8.53;;;11.10;99.90;;;;;;10299124;28;20219;-80
2023/03/14 01:27:38;;;;;;;11.43;10.63;;;11.10;99.90;;;;;;10307827;28;20235;-80
2023/03/14 01:32:41;;;;;;;10.53;9.83;;;11.20;99.90;;;;;;10287794;28;20633;-79
2023/03/14 01:37:43;;;;;;;9.47;8.93;;;11.20;99.90;;;;;;10300014;28;20288;-79
2023/03/14 01:42:58;;;;;;;10.03;9.50;;;11.20;99.90;;;;;;10282343;28;20294;-79
2023/03/14 01:48:01;;;;;;;8.10;7.80;;;11.20;99.90;;;;;;10282844;28;20240;-80
2023/03/14 01:53:04;;;;;;;7.90;7.60;;;11.20;99.90;;;;;;10300912;28;20232;-80
2023/03/14 01:58:09;;;;;;;7.40;7.00;;;11.20;99.90;;;;;;10281548;28;20235;-80
2023/03/14 02:03:15;;;;;;;6.90;6.70;;;11.30;99.90;;;;;;10277481;28;20227;-79
2023/03/14 02:08:21;;;;;;;6.47;6.23;;;11.20;99.90;;;;;;10296184;28;20271;-79
2023/03/14 02:13:31;;;;;;;7.47;7.07;;;11.20;99.90;;;;;;10282141;28;20200;-79
2023/03/14 02:19:03;;;;;;;6.57;6.37;;;11.20;99.90;;;;;;10280539;28;20225;-80
2023/03/14 02:24:16;;;;;;;6.83;6.63;;;11.20;99.90;;;;;;10297386;28;20224;-80
2023/03/14 02:29:24;;;;;;;6.70;6.50;;;11.20;99.90;;;;;;10280894;28;20259;-81
2023/03/14 02:34:27;;;;;;;6.00;5.80;;;11.30;99.90;;;;;;10283761;28;20256;-82
2023/03/14 02:39:36;;;;;;;5.80;5.60;;;11.30;99.90;;;;;;10302908;28;20224;-79
2023/03/14 02:44:51;;;;;;;6.30;6.00;;;11.30;99.90;;;;;;10329980;23;20310;-78
2023/03/14 02:49:58;;;;;;;5.90;5.60;;;11.30;99.90;;;;;;10356376;28;20199;-77
2023/03/14 02:55:02;;;;;;;6.03;5.80;;;11.30;99.90;;;;;;10381642;28;20218;-77
2023/03/14 03:00:08;;;;;;;5.60;5.30;;;11.30;99.90;;;;;;10412841;28;20222;-77
2023/03/14 03:05:13;;;;;;;4.83;4.73;;;11.30;99.90;;;;;;10398124;28;20246;-80
2023/03/14 03:10:15;;;;;;;4.80;4.60;;;11.30;99.90;;;;;;10414027;28;20245;-79
2023/03/14 03:15:19;;;;;;;5.03;4.80;;;11.30;99.90;;;;;;10414944;28;20214;-80
2023/03/14 03:20:21;;;;;;;4.70;4.40;;;11.30;99.90;;;;;;10415804;28;20223;-80
2023/03/14 03:25:23;;;;;;;3.73;3.63;;;11.20;99.90;;;;;;10413810;28;20224;-79
2023/03/14 03:30:27;;;;;;;3.40;3.10;;;11.20;99.90;;;;;;10414040;28;20717;-79
2023/03/14 03:35:29;;;;;;;11.97;5.80;;;11.20;99.90;;;;;;10414074;28;20217;-78
2023/03/14 03:40:32;;;;;;;3.57;3.30;;;11.20;99.90;;;;;;10397844;28;20217;-80
2023/03/14 03:45:36;;;;;;;4.27;3.40;;;11.30;99.90;;;;;;10415107;28;20249;-79
2023/03/14 03:50:44;;;;;;;2.40;2.30;;;11.20;99.90;;;;;;10395418;28;20206;-76
2023/03/14 03:55:46;;;;;;;2.80;2.30;;;11.20;99.90;;;;;;10409845;28;20301;-77
2023/03/14 04:00:51;;;;;;;3.80;1.97;;;11.20;99.90;;;;;;10414430;28;20218;-78
2023/03/14 04:06:05;;;;;;;2.10;1.83;;;11.20;99.90;;;;;;10398095;28;20229;-80
2023/03/14 04:11:09;;;;;;;2.07;1.87;;;11.20;99.90;;;;;;10398755;28;20195;-78
2023/03/14 04:16:32;;;;;;;2.47;2.23;;;11.10;99.90;;;;;;10416513;28;20214;-81
2023/03/14 04:21:44;;;;;;;3.07;2.10;;;11.10;99.90;;;;;;10413937;28;20283;-77
2023/03/14 04:26:47;;;;;;;2.37;2.10;;;11.10;99.90;;;;;;10414176;28;20222;-80
2023/03/14 04:31:54;;;;;;;2.17;1.90;;;11.10;99.90;;;;;;10397201;28;20286;-81
2023/03/14 04:36:57;;;;;;;1.90;1.80;;;11.20;99.90;;;;;;10414229;28;20767;-80
2023/03/14 04:42:06;;;;;;;2.20;1.90;;;11.20;99.90;;;;;;10397097;28;20724;-78
2023/03/14 04:47:10;;;;;;;2.30;2.03;;;11.10;99.90;;;;;;10414082;28;20315;-80
2023/03/14 04:52:14;;;;;;;4.33;2.40;;;11.10;99.90;;;;;;10415095;28;20199;-80
2023/03/14 04:57:17;;;;;;;2.77;1.93;;;11.10;99.90;;;;;;10398153;28;20621;-80
2023/03/14 05:02:21;;;;;;;3.90;2.50;;;11.10;99.90;;;;;;10414748;28;20222;-80
2023/03/14 05:07:55;;;;;;;2.63;2.00;;;11.10;99.90;;;;;;10383036;28;20226;-79
2023/03/14 05:13:33;;;;;;;2.83;1.70;;;11.10;99.90;;;;;;10410733;28;20655;-78
2023/03/14 05:18:48;;;;;;;1.97;1.60;;;11.00;99.90;;;;;;10416527;28;20272;-80
2023/03/14 05:24:07;;;;;;;3.47;2.50;;;11.00;99.90;;;;;;10411698;28;20863;-79
2023/03/14 05:29:28;;;;;;;3.03;1.87;;;11.00;99.90;;;;;;10404978;28;20201;-79
2023/03/14 05:34:41;;;;;;;3.23;2.30;;;11.10;99.90;;;;;;10415936;28;20245;-79
2023/03/14 05:40:02;;;;;;;2.50;1.43;;;11.10;99.90;;;;;;10421033;28;20242;-80
2023/03/14 05:45:29;;;;;;;2.77;2.10;;;11.00;99.90;;;;;;10404382;28;20246;-80
2023/03/14 05:51:08;;;;;;;3.20;1.93;;;11.00;99.90;;;;;;10338658;28;20209;-80
2023/03/14 05:56:36;;;;;;;1.80;1.70;;;11.00;99.90;;;;;;10399120;28;20265;-81
2023/03/14 06:01:44;;;;;;;1.97;1.87;;;11.00;99.90;;;;;;10418555;28;20214;-81
2023/03/14 06:06:53;;;;;;;4.00;2.23;;;11.00;99.90;;;;;;10419965;28;20226;-83
2023/03/14 06:11:56;;;;;;;3.10;2.13;;;10.90;99.90;;;;;;10397624;28;20732;-80
2023/03/14 06:16:59;;;;;;;2.37;1.93;;;10.90;99.90;;;;;;10419294;28;20226;-81
2023/03/14 06:22:06;;;;;;;7.53;2.13;;;11.00;99.90;;;;;;10400296;28;20225;-81
2023/03/14 06:27:10;;;;;;;4.53;2.83;;;11.10;99.90;;;;;;10402167;28;20226;-81
2023/03/14 06:32:13;;;;;;;2.13;1.80;;;11.10;99.90;;;;;;10425686;28;20191;-81
2023/03/14 06:37:16;;;;;;;4.53;2.17;;;11.10;99.90;;;;;;10398363;28;20233;-81
2023/03/14 06:42:21;;;;;;;2.80;2.33;;;11.10;99.90;;;;;;10397554;28;20214;-81
2023/03/14 06:47:25;;;;;;;1.93;1.80;;;11.10;99.90;;;;;;10413821;28;20249;-80
2023/03/14 06:52:29;;;;;;;4.03;3.00;;;11.20;99.90;;;;;;10416787;28;20656;-81
2023/03/14 06:57:31;;;;;;;2.50;2.20;;;11.20;99.90;;;;;;10415171;28;20598;-78
2023/03/14 07:02:34;;;;;;;3.20;2.10;;;11.20;99.90;;;;;;10399886;28;20682;-80
2023/03/14 07:07:39;;;;;;;1.67;1.57;;;11.30;99.90;;;;;;10398202;28;20229;-78
2023/03/14 07:12:41;;;;;;;2.97;1.63;;;11.50;99.90;;;;;;10414663;28;20195;-79
2023/03/14 07:17:43;;;;;;;4.73;1.97;;;11.60;99.90;;;;;;10415053;28;20221;-80
2023/03/14 07:22:48;;;;;;;2.83;1.70;;;11.70;99.90;;;;;;10413698;28;20261;-79
2023/03/14 07:27:51;;;;;;;1.83;1.73;;;11.70;99.90;;;;;;10397043;28;20217;-81
2023/03/14 07:32:53;;;;;;;2.20;1.60;;;11.60;99.90;;;;;;10397543;28;20713;-81
2023/03/14 07:38:00;;;;;;;4.47;2.00;;;11.60;99.90;;;;;;10414638;28;20220;-81
2023/03/14 07:43:11;;;;;;;2.10;1.57;;;11.70;99.90;;;;;;10416319;28;20216;-81
2023/03/14 07:48:21;;;;;;;3.90;1.87;;;11.70;99.90;;;;;;10400468;28;20226;-81
2023/03/14 07:53:25;;;;;;;2.47;1.97;;;11.80;99.90;;;;;;10419644;28;20194;-81
2023/03/14 07:58:27;;;;;;;2.17;1.97;;;11.90;99.90;;;;;;10415207;28;20370;-79
2023/03/14 08:03:30;;;;;;;1.90;1.67;;;12.10;99.90;;;;;;10414153;28;20214;-78
2023/03/14 08:08:33;;;;;;;1.90;1.50;;;12.30;99.90;;;;;;10412034;28;20210;-79
2023/03/14 08:13:36;;;;;;;1.70;1.60;;;12.40;99.90;;;;;;10414027;28;20195;-79
2023/03/14 08:18:38;;;;;;;1.87;1.77;;;12.60;99.90;;;;;;10412575;28;20214;-80
2023/03/14 08:23:41;;;;;;;2.97;2.20;;;12.70;99.90;;;;;;10413548;28;20294;-79
2023/03/14 08:28:43;;;;;;;1.90;1.67;;;12.80;99.90;;;;;;10413388;28;20264;-79
2023/03/14 08:33:46;;;;;;;4.33;2.03;;;12.90;99.90;;;;;;10395303;28;20198;-79
2023/03/14 08:38:49;;;;;;;1.80;1.70;;;13.00;99.90;;;;;;10413720;28;20210;-80
2023/03/14 08:43:51;;;;;;;2.03;1.83;;;13.40;99.90;;;;;;10403287;28;20246;-81
2023/03/14 08:48:53;;;;;;;1.50;1.40;;;13.70;99.90;;;;;;10441633;23;20230;-79
2023/03/14 08:53:57;;;;;;;1.40;1.40;;;14.00;99.90;;;;;;10428480;28;20187;-80
2023/03/14 08:58:59;;;;;;;2.70;1.80;;;14.10;99.90;;;;;;10410457;28;20307;-80
2023/03/14 09:04:03;;;;;;;1.83;1.30;;;14.10;99.70;;;;;;10428002;28;20310;-80
2023/03/14 09:09:06;;;;;;;1.70;0.97;;;14.10;99.90;;;;;;10384604;28;20246;-80
2023/03/14 09:14:08;;;;;;;1.20;1.10;;;14.10;99.90;;;;;;10346190;28;20199;-79
2023/03/14 09:19:10;;;;;;;1.30;1.20;;;14.20;99.90;;;;;;10344556;28;20286;-80
2023/03/14 09:24:14;;;;;;;1.50;1.40;;;14.30;99.90;;;;;;10426650;28;20252;-80
2023/03/14 09:29:16;;;;;;;1.57;1.47;;;14.50;99.90;;;;;;10386031;28;20316;-80
2023/03/14 09:34:18;;;;;;;3.53;1.40;;;14.60;99.90;;;;;;10425264;28;20191;-80
2023/03/14 09:39:22;;;;;;;1.57;1.20;;;14.70;99.90;;;;;;10425438;28;20194;-80
2023/03/14 09:44:29;;;;;;;1.40;1.30;;;14.80;99.80;;;;;;10412898;28;20671;-80
2023/03/14 09:49:32;;;;;;;1.40;1.30;;;14.80;99.90;;;;;;10384252;28;20204;-80
2023/03/14 09:54:41;;;;;;;1.20;1.10;;;14.70;99.90;;;;;;10389462;28;20196;-80
2023/03/14 09:59:45;;;;;;;1.20;1.10;;;14.70;99.70;;;;;;10415851;28;20207;-80
2023/03/14 10:04:49;;;;;;;1.40;1.40;;;14.70;97.40;;;;;;10376210;28;20660;-80
2023/03/14 10:09:53;;;;;;;0.87;0.80;;;14.60;97.00;;;;;;10415999;28;20207;-79
2023/03/14 10:14:55;;;;;;;1.10;1.00;;;14.50;98.80;;;;;;10408649;28;20223;-79
2023/03/14 10:19:58;;;;;;;2.23;1.50;;;14.40;98.10;;;;;;10376156;28;20293;-80
2023/03/14 10:25:05;;;;;;;1.60;1.50;;;14.20;97.80;;;;;;10425338;28;20270;-80
2023/03/14 10:30:27;;;;;;;1.53;1.20;;;14.00;99.00;;;;;;10402089;28;20285;-81
2023/03/14 10:35:34;;;;;;;1.20;1.10;;;14.00;98.30;;;;;;10342063;28;20233;-81
2023/03/14 10:40:40;;;;;;;0.60;0.50;;;14.20;97.70;;;;;;10351485;28;20215;-79
2023/03/14 10:45:45;;;;;;;0.93;0.93;;;14.30;98.70;;;;;;10380378;28;20266;-80
2023/03/14 10:50:56;;;;;;;1.30;1.20;;;14.50;98.50;;;;;;10396784;28;20203;-80
2023/03/14 10:56:04;;;;;;;2.27;0.90;;;14.60;98.10;;;;;;10435554;28;20237;-80
2023/03/14 11:01:18;;;;;;;1.10;1.10;;;14.70;97.70;;;;;;10389860;28;20211;-81
2023/03/14 11:06:27;;;;;;;2.37;1.60;;;14.80;98.40;;;;;;10413676;28;21502;-80
2023/03/14 11:11:31;;;;;;;1.00;1.00;;;14.70;98.30;;;;;;10400488;28;20219;-81
2023/03/14 11:16:41;;;;;;;1.43;1.33;;;14.60;99.70;;;;;;10383763;28;20207;-80
2023/03/14 11:21:52;;;;;;;1.10;1.10;;;14.40;99.90;;;;;;10415635;28;20215;-81
2023/03/14 11:27:03;;;;;;;1.80;1.70;;;14.20;99.90;;;;;;10405409;28;20241;-80
2023/03/14 11:32:15;;;;;;;1.90;1.80;;;13.90;99.90;;;;;;10366841;28;20217;-79
2023/03/14 11:37:24;;;;;;;1.90;1.80;;;13.40;99.90;;;;;;10413322;28;20273;-80
2023/03/14 11:42:32;;;;;;;1.77;1.67;;;13.00;99.90;;;;;;10410328;28;20421;-80
2023/03/14 11:47:38;;;;;;;1.60;1.60;;;12.90;99.90;;;;;;10375859;28;20218;-79
2023/03/14 11:52:45;;;;;;;1.40;1.40;;;12.80;99.90;;;;;;10394601;28;20245;-80
2023/03/14 11:57:51;;;;;;;1.70;1.70;;;12.80;99.90;;;;;;10389037;28;20734;-80
2023/03/14 12:03:01;;;;;;;4.37;1.83;;;12.90;99.90;;;;;;10363978;28;20218;-81
2023/03/14 12:08:38;;;;;;;1.80;1.70;;;12.90;99.90;;;;;;10405357;28;20242;-80
2023/03/14 12:13:46;;;;;;;1.30;1.30;;;13.00;99.90;;;;;;10372285;28;20277;-81
2023/03/14 12:18:49;;;;;;;1.80;1.70;;;13.10;99.90;;;;;;10412164;28;20684;-79
2023/03/14 12:23:53;;;;;;;1.53;1.43;;;13.30;99.90;;;;;;10404093;28;20261;-79
2023/03/14 12:29:16;;;;;;;1.30;1.30;;;13.30;99.90;;;;;;10406229;28;20595;-79
2023/03/14 12:34:30;;;;;;;2.77;2.67;;;13.30;99.90;;;;;;10387501;28;20671;-80
2023/03/14 12:39:38;;;;;;;1.50;1.50;;;13.30;99.90;;;;;;10378224;28;20198;-79
2023/03/14 12:44:47;;;;;;;1.77;1.30;;;13.40;99.90;;;;;;10383962;28;20233;-78
2023/03/14 12:49:52;;;;;;;1.30;1.30;;;13.40;99.90;;;;;;10417712;28;20261;-78
2023/03/14 12:55:00;;;;;;;1.77;1.67;;;13.20;97.20;;;;;;10419429;28;20231;-79
2023/03/14 13:00:17;;;;;;;1.97;1.73;;;12.90;99.50;;;;;;10399678;28;20206;-79
2023/03/14 13:05:21;;;;;;;1.70;1.60;;;12.80;98.20;;;;;;10397063;28;20293;-81
2023/03/14 13:10:24;;;;;;;1.53;1.40;;;12.70;96.00;;;;;;10410026;28;20202;-79
2023/03/14 13:15:31;;;;;;;3.43;2.20;;;12.60;95.90;;;;;;10399175;28;20659;-81
2023/03/14 13:20:37;;;;;;;1.87;1.67;;;12.50;96.00;;;;;;10377367;28;20195;-79
2023/03/14 13:25:39;;;;;;;1.90;1.80;;;12.50;92.60;;;;;;10386790;28;20224;-80
2023/03/14 13:30:45;;;;;;;1.70;1.60;;;12.60;93.90;;;;;;10400487;28;20251;-81
2023/03/14 13:35:50;;;;;;;1.90;1.80;;;12.70;94.70;;;;;;10408522;28;20219;-80
2023/03/14 13:40:58;;;;;;;2.20;1.70;;;12.80;92.20;;;;;;10403769;28;20258;-80
2023/03/14 13:46:07;;;;;;;1.90;1.80;;;12.70;93.30;;;;;;10398220;28;20311;-80
2023/03/14 13:51:14;;;;;;;1.97;1.77;;;12.70;90.80;;;;;;10379377;28;20191;-80
2023/03/14 13:56:16;;;;;;;2.20;2.10;;;12.80;91.30;;;;;;10401010;28;20257;-80
2023/03/14 14:01:23;;;;;;;1.70;1.60;;;12.80;91.70;;;;;;10384603;28;20581;-80
2023/03/14 14:06:31;;;;;;;2.07;1.80;;;12.80;92.10;;;;;;10391657;28;20703;-80
2023/03/14 14:11:44;;;;;;;2.13;1.80;;;12.70;85.90;;;;;;10399710;28;20225;-79
2023/03/14 14:16:48;;;;;;;1.77;1.50;;;12.60;86.80;;;;;;10418408;28;20222;-79
2023/03/14 14:21:51;;;;;;;2.80;1.93;;;12.50;85.00;;;;;;10382242;28;20218;-80
2023/03/14 14:26:55;;;;;;;3.13;1.70;;;12.40;87.50;;;;;;10399396;28;20210;-80
2023/03/14 14:32:03;;;;;;;1.43;1.30;;;12.40;84.20;;;;;;10413063;28;20274;-80
2023/03/14 14:37:06;;;;;;;2.00;1.80;;;12.40;85.50;;;;;;10416641;28;20295;-80
2023/03/14 14:42:15;;;;;;;2.13;1.60;;;12.30;82.10;;;;;;10410845;28;20446;-80
2023/03/14 14:47:20;;;;;;;1.87;1.77;;;12.20;83.30;;;;;;10442799;23;20254;-81
2023/03/14 14:52:31;;;;;;;1.50;1.40;;;12.20;81.90;;;;;;10418189;28;20194;-81
2023/03/14 14:57:40;;;;;;;3.87;1.80;;;12.10;85.10;;;;;;10418570;28;20282;-81
2023/03/14 15:02:47;;;;;;;2.93;1.63;;;12.10;88.30;;;;;;10429715;28;20226;-80
2023/03/14 15:07:53;;;;;;;3.80;1.90;;;12.10;85.50;;;;;;10421765;28;20237;-81
2023/03/14 15:12:55;;;;;;;4.17;1.83;;;12.20;86.00;;;;;;10420550;28;20730;-81
2023/03/14 15:17:58;;;;;;;2.87;1.50;;;12.10;83.60;;;;;;10419636;28;20218;-79
2023/03/14 15:23:00;;;;;;;2.83;2.20;;;12.10;88.20;;;;;;10419513;28;20218;-80
2023/03/14 15:28:03;;;;;;;2.73;2.10;;;12.20;82.80;;;;;;10418971;28;20345;-81
2023/03/14 15:33:08;;;;;;;3.03;1.90;;;12.30;83.90;;;;;;10402913;28;20597;-81
2023/03/14 15:38:12;;;;;;;2.20;1.93;;;12.30;81.60;;;;;;10422440;28;20635;-81
2023/03/14 15:43:14;;;;;;;3.73;1.60;;;12.20;82.00;;;;;;10418001;28;20218;-80
2023/03/14 15:48:19;;;;;;;3.37;2.37;;;12.00;81.60;;;;;;10420233;28;20230;-80
2023/03/14 15:53:21;;;;;;;2.43;1.80;;;11.90;81.10;;;;;;10419015;28;20610;-80
2023/03/14 15:58:23;;;;;;;3.37;2.20;;;11.70;85.60;;;;;;10417472;28;20584;-79
2023/03/14 16:03:27;;;;;;;4.87;2.40;;;11.70;84.10;;;;;;10411044;28;20227;-79
2023/03/14 16:08:29;;;;;;;2.50;1.80;;;11.70;83.70;;;;;;10418303;28;20221;-79
2023/03/14 16:13:32;;;;;;;5.07;2.23;;;11.70;86.40;;;;;;10398261;28;20204;-79
2023/03/14 16:18:37;;;;;;;1.87;1.77;;;11.70;82.90;;;;;;10420291;28;20229;-80
2023/03/14 16:23:40;;;;;;;4.10;1.80;;;11.70;87.50;;;;;;10417248;28;20308;-80
2023/03/14 16:28:42;;;;;;;2.70;2.10;;;11.70;88.10;;;;;;10431790;28;20210;-80
2023/03/14 16:33:46;;;;;;;4.20;2.10;;;11.70;83.80;;;;;;10423118;28;20281;-77
2023/03/14 16:38:48;;;;;;;2.33;2.13;;;11.70;86.50;;;;;;10416258;28;20218;-81
2023/03/14 16:43:51;;;;;;;3.33;1.90;;;11.50;88.00;;;;;;10434707;28;20219;-80
2023/03/14 16:48:55;;;;;;;6.00;1.83;;;11.50;88.00;;;;;;10416263;28;20236;-81
2023/03/14 16:53:57;;;;;;;2.10;1.90;;;11.40;82.80;;;;;;10410824;28;20187;-77
2023/03/14 16:58:59;;;;;;;2.10;1.90;;;11.40;84.30;;;;;;10414325;28;20214;-80
2023/03/14 17:04:03;;;;;;;3.20;2.20;;;11.30;91.10;;;;;;10421938;28;20242;-80
2023/03/14 17:09:05;;;;;;;2.60;2.07;;;11.30;90.80;;;;;;10419296;28;20301;-80
2023/03/14 17:14:07;;;;;;;2.27;2.07;;;11.30;90.50;;;;;;10417395;28;20205;-80
2023/03/14 17:19:11;;;;;;;3.13;1.90;;;11.30;90.00;;;;;;10418289;28;20685;-80
2023/03/14 17:24:13;;;;;;;3.17;1.83;;;11.40;90.60;;;;;;10419264;28;20229;-80
2023/03/14 17:29:15;;;;;;;1.50;1.40;;;11.40;91.60;;;;;;10419584;28;20251;-80
2023/03/14 17:34:19;;;;;;;2.33;2.07;;;11.40;92.80;;;;;;10420480;28;20194;-80
2023/03/14 17:39:21;;;;;;;3.27;2.33;;;11.40;92.10;;;;;;10417648;28;20222;-77
2023/03/14 17:44:23;;;;;;;3.00;2.30;;;11.30;94.30;;;;;;10416008;28;20218;-77
2023/03/14 17:49:26;;;;;;;4.27;2.50;;;11.10;95.60;;;;;;10415365;28;20230;-80
2023/03/14 17:54:29;;;;;;;5.83;3.10;;;10.90;96.30;;;;;;10416993;28;20217;-78
2023/03/14 17:59:31;;;;;;;5.07;3.07;;;10.80;97.50;;;;;;10419369;28;20224;-81
2023/03/14 18:04:35;;;;;;;2.73;2.53;;;10.80;97.40;;;;;;10420465;28;20215;-80
2023/03/14 18:09:37;;;;;;;3.83;3.40;;;10.70;97.30;;;;;;10412348;28;20225;-81
2023/03/14 18:14:43;;;;;;;3.73;3.00;;;10.70;98.10;;;;;;10423720;28;20290;-80
2023/03/14 18:19:46;;;;;;;3.57;2.80;;;10.60;97.40;;;;;;10417165;28;20218;-78
2023/03/14 18:24:48;;;;;;;3.57;2.50;;;10.40;99.20;;;;;;10416544;28;20208;-79
2023/03/14 18:29:50;;;;;;;4.53;2.10;;;10.20;99.90;;;;;;10418882;28;20269;-80
2023/03/14 18:34:56;;;;;;;2.30;2.10;;;9.90;99.90;;;;;;10426366;28;20191;-80
2023/03/14 18:39:59;;;;;;;2.30;2.10;;;9.60;99.40;;;;;;10419748;28;20219;-80
2023/03/14 18:45:22;;;;;;;2.63;2.43;;;9.40;99.40;;;;;;10425872;28;20267;-77
2023/03/14 18:56:47;;;;;;;1.93;1.50;;;9.20;99.90;;;;;;10421079;28;20725;-79
2023/03/14 19:01:49;;;;;;;3.53;2.17;;;9.10;99.90;;;;;;10423241;28;20202;-78
2023/03/14 19:06:54;;;;;;;2.27;1.90;;;9.10;99.90;;;;;;10432335;28;20580;-79
2023/03/14 19:11:57;;;;;;;2.50;2.07;;;9.10;99.90;;;;;;10427252;28;20205;-79
2023/03/14 19:17:00;;;;;;;1.90;1.80;;;9.20;99.90;;;;;;10418116;28;20596;-79
2023/03/14 19:22:03;;;;;;;2.83;1.87;;;9.20;99.00;;;;;;10421921;28;20242;-79
2023/03/14 19:27:05;;;;;;;3.17;2.00;;;9.20;99.90;;;;;;10414461;28;20241;-80
2023/03/14 19:32:07;;;;;;;2.20;2.00;;;9.20;99.90;;;;;;10416730;28;20227;-80
2023/03/14 19:37:11;;;;;;;2.20;2.07;;;9.30;99.10;;;;;;10402308;28;20214;-79
2023/03/14 19:42:13;;;;;;;3.67;2.30;;;9.30;98.80;;;;;;10416507;28;20225;-79
2023/03/14 19:47:15;;;;;;;4.40;2.37;;;9.30;98.70;;;;;;10408378;28;20610;-79
2023/03/14 19:52:19;;;;;;;3.43;2.13;;;9.30;98.90;;;;;;10407923;28;20185;-78
2023/03/14 19:57:21;;;;;;;3.87;2.60;;;9.30;98.80;;;;;;10414750;28;20217;-81
2023/03/14 20:02:23;;;;;;;4.83;3.70;;;9.30;99.30;;;;;;10412738;28;20216;-78
2023/03/14 20:07:26;;;;;;;4.57;3.43;;;9.20;99.30;;;;;;10414019;28;20261;-82
2023/03/14 20:12:30;;;;;;;5.47;2.83;;;9.20;99.70;;;;;;10404350;28;20191;-81
2023/03/14 20:17:37;;;;;;;2.70;2.30;;;9.20;98.70;;;;;;10428200;28;20300;-81
2023/03/14 20:22:41;;;;;;;12.47;5.97;;;9.20;99.20;;;;;;10407285;28;20207;-80
2023/03/14 20:27:43;;;;;;;8.70;5.70;;;9.20;98.90;;;;;;10401009;28;20259;-80
2023/03/14 20:32:50;;;;;;;3.97;2.83;;;9.30;98.80;;;;;;10408339;28;20193;-80
2023/03/14 20:37:54;;;;;;;3.10;2.40;;;9.30;98.80;;;;;;10429315;28;20315;-80
2023/03/14 20:42:57;;;;;;;5.90;3.00;;;9.30;99.30;;;;;;10414598;28;20310;-78
2023/03/14 20:47:59;;;;;;;4.53;2.50;;;9.30;99.50;;;;;;10428588;23;20237;-82
2023/03/14 20:53:02;;;;;;;3.87;2.60;;;9.40;99.20;;;;;;10417655;28;20197;-81
2023/03/14 20:58:05;;;;;;;3.17;2.53;;;9.40;99.30;;;;;;10422063;28;20225;-81
2023/03/14 21:03:09;;;;;;;2.90;2.40;;;9.50;99.80;;;;;;10421397;28;20256;-82
2023/03/14 21:08:13;;;;;;;3.37;2.80;;;9.50;99.50;;;;;;10404884;28;20689;-82
2023/03/14 21:13:15;;;;;;;5.70;2.70;;;9.50;99.50;;;;;;10395834;28;20635;-81
2023/03/14 21:18:17;;;;;;;2.90;2.70;;;9.60;99.90;;;;;;10414401;28;20221;-80
2023/03/14 21:23:20;;;;;;;4.57;2.93;;;9.60;99.80;;;;;;10417294;28;20723;-81
2023/03/14 21:28:23;;;;;;;3.10;2.37;;;9.70;98.30;;;;;;10413837;28;20729;-80
2023/03/14 21:33:25;;;;;;;3.93;3.37;;;9.70;97.50;;;;;;10419996;28;20556;-81
2023/03/14 21:38:29;;;;;;;3.27;2.53;;;9.60;98.80;;;;;;10425873;28;20248;-81
2023/03/14 21:43:31;;;;;;;2.50;2.30;;;9.40;99.90;;;;;;10418971;28;20220;-80
2023/03/14 21:48:33;;;;;;;2.83;2.50;;;9.30;99.90;;;;;;10418168;28;20224;-81
2023/03/14 21:53:37;;;;;;;2.87;2.57;;;9.30;99.90;;;;;;10416636;28;20253;-81
2023/03/14 21:58:40;;;;;;;2.70;2.50;;;9.30;99.90;;;;;;10419923;28;20256;-81
2023/03/14 22:03:44;;;;;;;4.13;2.00;;;9.20;99.90;;;;;;10417991;28;20221;-81
2023/03/14 22:08:48;;;;;;;2.70;2.33;;;9.10;99.90;;;;;;10432494;28;20700;-80
2023/03/14 22:13:50;;;;;;;2.50;2.30;;;9.00;99.90;;;;;;10415922;28;20224;-80
2023/03/14 22:18:52;;;;;;;4.03;3.73;;;9.00;99.90;;;;;;10416976;28;20847;-83
2023/03/14 22:23:55;;;;;;;3.67;3.27;;;8.90;99.90;;;;;;10416255;28;20220;-79
2023/03/14 22:28:57;;;;;;;2.93;2.73;;;8.90;99.70;;;;;;10419262;28;20278;-83
2023/03/14 22:34:00;;;;;;;2.00;1.90;;;8.90;99.90;;;;;;10420368;28;20245;-82
2023/03/14 22:39:05;;;;;;;2.03;1.93;;;8.90;99.90;;;;;;10416968;28;20250;-80
2023/03/14 22:44:07;;;;;;;2.20;2.10;;;8.70;99.80;;;;;;10422568;28;20741;-80
2023/03/14 22:49:09;;;;;;;2.00;1.90;;;8.30;99.90;;;;;;10425801;28;20227;-79
2023/03/14 22:54:12;;;;;;;2.30;2.20;;;8.00;99.90;;;;;;10425262;28;20250;-83
2023/03/14 22:59:15;;;;;;;2.13;2.03;;;7.80;99.90;;;;;;10412350;28;20242;-82
2023/03/14 23:04:17;;;;;;;2.40;2.30;;;7.60;99.90;;;;;;10426264;28;20210;-81
2023/03/14 23:09:21;;;;;;;2.57;2.47;;;7.40;99.90;;;;;;10422163;28;20226;-81
2023/03/14 23:14:23;;;;;;;2.43;2.33;;;7.30;99.90;;;;;;10404579;28;20579;-80
2023/03/14 23:19:25;;;;;;;2.60;2.50;;;7.10;99.90;;;;;;10419491;28;20218;-81
2023/03/14 23:24:28;;;;;;;2.93;2.73;;;7.00;99.90;;;;;;10420552;28;20701;-83
2023/03/14 23:29:30;;;;;;;3.60;3.30;;;7.00;99.90;;;;;;10409992;28;20222;-81
2023/03/14 23:34:32;;;;;;;3.10;2.90;;;6.90;99.90;;;;;;10423353;28;20633;-80
2023/03/14 23:39:36;;;;;;;4.63;3.83;;;6.90;99.90;;;;;;10422916;28;20221;-80
2023/03/14 23:44:38;;;;;;;3.73;3.43;;;6.80;99.90;;;;;;10407592;28;20215;-81
2023/03/14 23:49:40;;;;;;;4.10;3.80;;;6.80;99.90;;;;;;10425508;28;20700;-81
2023/03/14 23:54:44;;;;;;;4.43;4.13;;;6.90;99.90;;;;;;10415777;28;20198;-78
2023/03/14 23:59:46;;;;;;;4.50;4.20;;;6.80;99.90;;;;;;10411574;28;20218;-78
